sensor_id;sensor_type;location;lat;lon;timestamp;P1;durP1;ratioP1;P2;durP2;ratioP2
18338;SDS011;9295;44.484;11.240;2023-02-23T00:02:18;68.20;;;36.67;;
18338;SDS011;9295;44.484;11.240;2023-02-23T00:04:47;65.13;;;37.63;;
18338;SDS011;9295;44.484;11.240;2023-02-23T00:07:15;64.10;;;37.00;;
18338;SDS011;9295;44.484;11.240;2023-02-23T00:09:46;59.27;;;36.90;;
18338;SDS011;9295;44.484;11.240;2023-02-23T00:12:16;71.97;;;38.20;;
18338;SDS011;9295;44.484;11.240;2023-02-23T00:14:46;78.80;;;42.73;;
18338;SDS011;9295;44.484;11.240;2023-02-23T00:17:16;83.80;;;42.40;;
18338;SDS011;9295;44.484;11.240;2023-02-23T00:19:46;72.83;;;41.20;;
18338;SDS011;9295;44.484;11.240;2023-02-23T00:22:15;77.03;;;40.60;;
18338;SDS011;9295;44.484;11.240;2023-02-23T00:24:44;66.60;;;37.87;;
18338;SDS011;9295;44.484;11.240;2023-02-23T00:27:13;61.67;;;37.53;;
18338;SDS011;9295;44.484;11.240;2023-02-23T00:29:46;63.73;;;37.43;;
18338;SDS011;9295;44.484;11.240;2023-02-23T00:32:16;65.23;;;35.33;;
18338;SDS011;9295;44.484;11.240;2023-02-23T00:34:46;62.00;;;33.67;;
18338;SDS011;9295;44.484;11.240;2023-02-23T00:37:16;61.80;;;35.97;;
18338;SDS011;9295;44.484;11.240;2023-02-23T00:39:47;62.87;;;35.40;;
18338;SDS011;9295;44.484;11.240;2023-02-23T00:42:16;68.50;;;37.70;;
18338;SDS011;9295;44.484;11.240;2023-02-23T00:44:44;73.37;;;40.30;;
18338;SDS011;9295;44.484;11.240;2023-02-23T00:47:16;77.20;;;42.47;;
18338;SDS011;9295;44.484;11.240;2023-02-23T00:49:48;78.20;;;42.17;;
18338;SDS011;9295;44.484;11.240;2023-02-23T00:52:17;76.60;;;43.03;;
18338;SDS011;9295;44.484;11.240;2023-02-23T00:54:46;67.03;;;39.13;;
18338;SDS011;9295;44.484;11.240;2023-02-23T00:57:15;64.37;;;36.07;;
18338;SDS011;9295;44.484;11.240;2023-02-23T00:59:43;67.00;;;35.20;;
18338;SDS011;9295;44.484;11.240;2023-02-23T01:02:14;63.73;;;35.37;;
18338;SDS011;9295;44.484;11.240;2023-02-23T01:04:44;59.87;;;33.17;;
18338;SDS011;9295;44.484;11.240;2023-02-23T01:07:12;59.50;;;35.20;;
18338;SDS011;9295;44.484;11.240;2023-02-23T01:09:41;61.93;;;34.90;;
18338;SDS011;9295;44.484;11.240;2023-02-23T01:12:09;63.73;;;35.87;;
18338;SDS011;9295;44.484;11.240;2023-02-23T01:14:38;64.87;;;34.73;;
18338;SDS011;9295;44.484;11.240;2023-02-23T01:17:09;61.70;;;37.20;;
18338;SDS011;9295;44.484;11.240;2023-02-23T01:19:39;66.73;;;36.83;;
18338;SDS011;9295;44.484;11.240;2023-02-23T01:22:07;60.93;;;35.87;;
18338;SDS011;9295;44.484;11.240;2023-02-23T01:24:39;66.33;;;37.57;;
18338;SDS011;9295;44.484;11.240;2023-02-23T01:27:08;65.20;;;36.17;;
18338;SDS011;9295;44.484;11.240;2023-02-23T01:29:36;62.60;;;35.73;;
18338;SDS011;9295;44.484;11.240;2023-02-23T01:32:06;64.30;;;36.43;;
18338;SDS011;9295;44.484;11.240;2023-02-23T01:34:34;72.60;;;36.10;;
18338;SDS011;9295;44.484;11.240;2023-02-23T01:37:04;68.73;;;35.67;;
18338;SDS011;9295;44.484;11.240;2023-02-23T01:39:34;65.33;;;36.73;;
18338;SDS011;9295;44.484;11.240;2023-02-23T01:42:02;61.13;;;35.90;;
18338;SDS011;9295;44.484;11.240;2023-02-23T01:47:39;76.70;;;38.87;;
18338;SDS011;9295;44.484;11.240;2023-02-23T01:50:08;74.27;;;41.20;;
18338;SDS011;9295;44.484;11.240;2023-02-23T01:52:39;75.10;;;43.10;;
18338;SDS011;9295;44.484;11.240;2023-02-23T01:55:08;75.97;;;41.67;;
18338;SDS011;9295;44.484;11.240;2023-02-23T01:57:38;81.30;;;42.87;;
18338;SDS011;9295;44.484;11.240;2023-02-23T02:00:09;86.50;;;42.77;;
18338;SDS011;9295;44.484;11.240;2023-02-23T02:02:40;78.53;;;42.73;;
18338;SDS011;9295;44.484;11.240;2023-02-23T02:05:09;78.70;;;42.33;;
18338;SDS011;9295;44.484;11.240;2023-02-23T02:07:41;82.53;;;42.80;;
18338;SDS011;9295;44.484;11.240;2023-02-23T02:10:17;87.20;;;41.67;;
18338;SDS011;9295;44.484;11.240;2023-02-23T02:13:03;78.57;;;41.37;;
18338;SDS011;9295;44.484;11.240;2023-02-23T02:15:34;79.53;;;42.00;;
18338;SDS011;9295;44.484;11.240;2023-02-23T02:18:11;80.47;;;40.30;;
18338;SDS011;9295;44.484;11.240;2023-02-23T02:21:01;77.30;;;42.20;;
18338;SDS011;9295;44.484;11.240;2023-02-23T02:26:56;74.07;;;40.67;;
18338;SDS011;9295;44.484;11.240;2023-02-23T02:35:53;82.37;;;43.90;;
18338;SDS011;9295;44.484;11.240;2023-02-23T02:38:49;74.13;;;40.60;;
18338;SDS011;9295;44.484;11.240;2023-02-23T02:41:26;79.00;;;45.07;;
18338;SDS011;9295;44.484;11.240;2023-02-23T02:44:09;78.23;;;43.60;;
18338;SDS011;9295;44.484;11.240;2023-02-23T02:46:43;86.97;;;41.87;;
18338;SDS011;9295;44.484;11.240;2023-02-23T02:49:18;87.20;;;41.50;;
18338;SDS011;9295;44.484;11.240;2023-02-23T02:51:54;80.40;;;42.40;;
18338;SDS011;9295;44.484;11.240;2023-02-23T02:54:30;79.53;;;41.03;;
18338;SDS011;9295;44.484;11.240;2023-02-23T02:57:02;80.00;;;43.30;;
18338;SDS011;9295;44.484;11.240;2023-02-23T02:59:40;78.37;;;42.53;;
18338;SDS011;9295;44.484;11.240;2023-02-23T03:02:30;72.77;;;40.23;;
18338;SDS011;9295;44.484;11.240;2023-02-23T03:05:19;79.27;;;42.17;;
18338;SDS011;9295;44.484;11.240;2023-02-23T03:08:12;80.53;;;41.90;;
18338;SDS011;9295;44.484;11.240;2023-02-23T03:11:07;84.80;;;43.70;;
18338;SDS011;9295;44.484;11.240;2023-02-23T03:13:59;77.73;;;41.43;;
18338;SDS011;9295;44.484;11.240;2023-02-23T03:16:55;75.37;;;40.37;;
18338;SDS011;9295;44.484;11.240;2023-02-23T03:19:51;76.60;;;42.50;;
18338;SDS011;9295;44.484;11.240;2023-02-23T03:22:42;69.80;;;38.40;;
18338;SDS011;9295;44.484;11.240;2023-02-23T03:25:40;81.17;;;42.90;;
18338;SDS011;9295;44.484;11.240;2023-02-23T03:28:35;76.93;;;42.10;;
18338;SDS011;9295;44.484;11.240;2023-02-23T03:31:32;76.33;;;40.30;;
18338;SDS011;9295;44.484;11.240;2023-02-23T03:34:26;65.57;;;38.10;;
18338;SDS011;9295;44.484;11.240;2023-02-23T03:37:19;70.93;;;38.73;;
18338;SDS011;9295;44.484;11.240;2023-02-23T03:40:11;75.63;;;40.30;;
18338;SDS011;9295;44.484;11.240;2023-02-23T03:43:04;74.97;;;40.30;;
18338;SDS011;9295;44.484;11.240;2023-02-23T03:45:56;81.17;;;41.47;;
18338;SDS011;9295;44.484;11.240;2023-02-23T03:48:45;76.87;;;41.60;;
18338;SDS011;9295;44.484;11.240;2023-02-23T03:51:34;74.90;;;38.33;;
18338;SDS011;9295;44.484;11.240;2023-02-23T03:54:24;70.03;;;40.80;;
18338;SDS011;9295;44.484;11.240;2023-02-23T03:57:14;75.67;;;40.20;;
18338;SDS011;9295;44.484;11.240;2023-02-23T04:00:04;77.33;;;41.60;;
18338;SDS011;9295;44.484;11.240;2023-02-23T04:02:54;71.30;;;39.47;;
18338;SDS011;9295;44.484;11.240;2023-02-23T04:05:43;72.50;;;39.93;;
18338;SDS011;9295;44.484;11.240;2023-02-23T04:08:32;72.13;;;38.47;;
18338;SDS011;9295;44.484;11.240;2023-02-23T04:11:22;76.20;;;40.67;;
18338;SDS011;9295;44.484;11.240;2023-02-23T04:14:16;76.63;;;41.40;;
18338;SDS011;9295;44.484;11.240;2023-02-23T04:16:45;75.97;;;41.43;;
18338;SDS011;9295;44.484;11.240;2023-02-23T04:19:15;83.30;;;43.87;;
18338;SDS011;9295;44.484;11.240;2023-02-23T04:21:43;85.43;;;43.27;;
18338;SDS011;9295;44.484;11.240;2023-02-23T04:24:12;80.83;;;44.97;;
18338;SDS011;9295;44.484;11.240;2023-02-23T04:26:40;90.70;;;46.93;;
18338;SDS011;9295;44.484;11.240;2023-02-23T04:29:09;86.60;;;44.80;;
18338;SDS011;9295;44.484;11.240;2023-02-23T04:31:38;83.40;;;44.93;;
18338;SDS011;9295;44.484;11.240;2023-02-23T04:34:07;100.20;;;49.07;;
18338;SDS011;9295;44.484;11.240;2023-02-23T04:36:37;92.73;;;48.37;;
18338;SDS011;9295;44.484;11.240;2023-02-23T04:39:06;98.93;;;46.53;;
18338;SDS011;9295;44.484;11.240;2023-02-23T04:41:34;97.60;;;46.90;;
18338;SDS011;9295;44.484;11.240;2023-02-23T04:44:03;85.03;;;42.97;;
18338;SDS011;9295;44.484;11.240;2023-02-23T04:46:32;72.80;;;41.13;;
18338;SDS011;9295;44.484;11.240;2023-02-23T04:49:01;79.93;;;41.37;;
18338;SDS011;9295;44.484;11.240;2023-02-23T04:51:29;76.73;;;41.80;;
18338;SDS011;9295;44.484;11.240;2023-02-23T04:54:01;86.37;;;44.50;;
18338;SDS011;9295;44.484;11.240;2023-02-23T04:56:29;93.80;;;44.43;;
18338;SDS011;9295;44.484;11.240;2023-02-23T04:58:58;64.97;;;37.07;;
18338;SDS011;9295;44.484;11.240;2023-02-23T05:01:27;69.37;;;37.93;;
18338;SDS011;9295;44.484;11.240;2023-02-23T05:03:55;58.40;;;35.20;;
18338;SDS011;9295;44.484;11.240;2023-02-23T05:06:25;60.93;;;33.13;;
18338;SDS011;9295;44.484;11.240;2023-02-23T05:08:54;63.30;;;32.57;;
18338;SDS011;9295;44.484;11.240;2023-02-23T05:11:24;67.97;;;34.93;;
18338;SDS011;9295;44.484;11.240;2023-02-23T05:13:53;56.40;;;33.13;;
18338;SDS011;9295;44.484;11.240;2023-02-23T05:16:21;61.03;;;33.70;;
18338;SDS011;9295;44.484;11.240;2023-02-23T05:18:50;56.93;;;32.23;;
18338;SDS011;9295;44.484;11.240;2023-02-23T05:21:19;57.47;;;32.70;;
18338;SDS011;9295;44.484;11.240;2023-02-23T05:23:47;59.47;;;33.00;;
18338;SDS011;9295;44.484;11.240;2023-02-23T05:26:16;57.70;;;32.37;;
18338;SDS011;9295;44.484;11.240;2023-02-23T05:28:46;54.30;;;30.17;;
18338;SDS011;9295;44.484;11.240;2023-02-23T05:31:14;54.67;;;29.27;;
18338;SDS011;9295;44.484;11.240;2023-02-23T05:33:44;50.13;;;29.30;;
18338;SDS011;9295;44.484;11.240;2023-02-23T05:36:13;50.10;;;28.40;;
18338;SDS011;9295;44.484;11.240;2023-02-23T05:38:43;46.93;;;27.90;;
18338;SDS011;9295;44.484;11.240;2023-02-23T05:41:13;48.13;;;26.50;;
18338;SDS011;9295;44.484;11.240;2023-02-23T05:43:43;50.60;;;29.43;;
18338;SDS011;9295;44.484;11.240;2023-02-23T05:46:14;48.70;;;27.43;;
18338;SDS011;9295;44.484;11.240;2023-02-23T05:48:45;46.30;;;28.43;;
18338;SDS011;9295;44.484;11.240;2023-02-23T05:51:15;51.43;;;28.53;;
18338;SDS011;9295;44.484;11.240;2023-02-23T05:53:44;47.63;;;27.73;;
18338;SDS011;9295;44.484;11.240;2023-02-23T05:56:14;52.37;;;29.30;;
18338;SDS011;9295;44.484;11.240;2023-02-23T05:58:47;53.53;;;29.13;;
18338;SDS011;9295;44.484;11.240;2023-02-23T06:01:16;54.30;;;29.30;;
18338;SDS011;9295;44.484;11.240;2023-02-23T06:03:46;53.53;;;28.67;;
18338;SDS011;9295;44.484;11.240;2023-02-23T06:06:15;49.17;;;26.97;;
18338;SDS011;9295;44.484;11.240;2023-02-23T06:08:44;53.47;;;28.67;;
18338;SDS011;9295;44.484;11.240;2023-02-23T06:11:13;52.60;;;30.20;;
18338;SDS011;9295;44.484;11.240;2023-02-23T06:13:42;54.70;;;30.20;;
18338;SDS011;9295;44.484;11.240;2023-02-23T06:16:12;52.47;;;29.10;;
18338;SDS011;9295;44.484;11.240;2023-02-23T06:18:41;50.70;;;31.03;;
18338;SDS011;9295;44.484;11.240;2023-02-23T06:21:10;51.30;;;29.87;;
18338;SDS011;9295;44.484;11.240;2023-02-23T06:23:38;58.30;;;31.47;;
18338;SDS011;9295;44.484;11.240;2023-02-23T06:26:07;59.40;;;31.70;;
18338;SDS011;9295;44.484;11.240;2023-02-23T06:28:35;56.87;;;31.53;;
18338;SDS011;9295;44.484;11.240;2023-02-23T06:31:04;51.13;;;27.10;;
18338;SDS011;9295;44.484;11.240;2023-02-23T06:33:34;61.00;;;30.13;;
18338;SDS011;9295;44.484;11.240;2023-02-23T06:36:03;55.83;;;31.53;;
18338;SDS011;9295;44.484;11.240;2023-02-23T06:38:32;60.87;;;31.13;;
18338;SDS011;9295;44.484;11.240;2023-02-23T06:41:05;56.67;;;31.30;;
18338;SDS011;9295;44.484;11.240;2023-02-23T06:43:34;53.10;;;32.10;;
18338;SDS011;9295;44.484;11.240;2023-02-23T06:46:03;63.00;;;37.07;;
18338;SDS011;9295;44.484;11.240;2023-02-23T06:48:32;66.23;;;37.33;;
18338;SDS011;9295;44.484;11.240;2023-02-23T06:51:02;58.10;;;34.80;;
18338;SDS011;9295;44.484;11.240;2023-02-23T06:53:31;67.17;;;33.40;;
18338;SDS011;9295;44.484;11.240;2023-02-23T06:56:00;58.03;;;31.00;;
18338;SDS011;9295;44.484;11.240;2023-02-23T06:58:29;54.37;;;32.00;;
18338;SDS011;9295;44.484;11.240;2023-02-23T07:00:57;49.10;;;28.70;;
18338;SDS011;9295;44.484;11.240;2023-02-23T07:03:26;60.80;;;32.33;;
18338;SDS011;9295;44.484;11.240;2023-02-23T07:05:55;52.40;;;29.83;;
18338;SDS011;9295;44.484;11.240;2023-02-23T07:08:25;50.37;;;30.70;;
18338;SDS011;9295;44.484;11.240;2023-02-23T07:10:53;54.40;;;31.80;;
18338;SDS011;9295;44.484;11.240;2023-02-23T07:13:24;58.53;;;33.37;;
18338;SDS011;9295;44.484;11.240;2023-02-23T07:15:55;63.73;;;35.33;;
18338;SDS011;9295;44.484;11.240;2023-02-23T07:18:24;65.20;;;37.07;;
18338;SDS011;9295;44.484;11.240;2023-02-23T07:20:53;70.70;;;38.00;;
18338;SDS011;9295;44.484;11.240;2023-02-23T07:23:22;81.03;;;43.30;;
18338;SDS011;9295;44.484;11.240;2023-02-23T07:25:53;82.07;;;41.30;;
18338;SDS011;9295;44.484;11.240;2023-02-23T07:28:22;83.23;;;41.50;;
18338;SDS011;9295;44.484;11.240;2023-02-23T07:30:54;83.93;;;41.17;;
18338;SDS011;9295;44.484;11.240;2023-02-23T07:33:22;74.83;;;40.77;;
18338;SDS011;9295;44.484;11.240;2023-02-23T07:35:51;75.40;;;41.03;;
18338;SDS011;9295;44.484;11.240;2023-02-23T07:38:20;91.10;;;40.73;;
18338;SDS011;9295;44.484;11.240;2023-02-23T07:40:50;78.97;;;41.70;;
18338;SDS011;9295;44.484;11.240;2023-02-23T07:43:18;85.10;;;43.40;;
18338;SDS011;9295;44.484;11.240;2023-02-23T07:45:48;99.97;;;42.30;;
18338;SDS011;9295;44.484;11.240;2023-02-23T07:48:17;79.33;;;40.80;;
18338;SDS011;9295;44.484;11.240;2023-02-23T07:50:46;71.43;;;37.53;;
18338;SDS011;9295;44.484;11.240;2023-02-23T07:53:15;65.17;;;37.17;;
18338;SDS011;9295;44.484;11.240;2023-02-23T07:55:43;68.47;;;38.50;;
18338;SDS011;9295;44.484;11.240;2023-02-23T07:58:13;74.73;;;40.00;;
18338;SDS011;9295;44.484;11.240;2023-02-23T08:00:42;78.50;;;38.30;;
18338;SDS011;9295;44.484;11.240;2023-02-23T08:03:10;63.23;;;36.30;;
18338;SDS011;9295;44.484;11.240;2023-02-23T08:05:39;71.63;;;37.13;;
18338;SDS011;9295;44.484;11.240;2023-02-23T08:08:10;65.73;;;36.77;;
18338;SDS011;9295;44.484;11.240;2023-02-23T08:10:39;79.87;;;36.47;;
18338;SDS011;9295;44.484;11.240;2023-02-23T08:13:07;69.23;;;37.03;;
18338;SDS011;9295;44.484;11.240;2023-02-23T08:15:37;77.03;;;34.83;;
18338;SDS011;9295;44.484;11.240;2023-02-23T08:18:06;66.50;;;38.40;;
18338;SDS011;9295;44.484;11.240;2023-02-23T08:20:35;76.87;;;40.60;;
18338;SDS011;9295;44.484;11.240;2023-02-23T08:23:03;74.03;;;41.63;;
18338;SDS011;9295;44.484;11.240;2023-02-23T08:25:32;86.03;;;44.23;;
18338;SDS011;9295;44.484;11.240;2023-02-23T08:28:00;75.23;;;43.70;;
18338;SDS011;9295;44.484;11.240;2023-02-23T08:30:30;94.67;;;46.37;;
18338;SDS011;9295;44.484;11.240;2023-02-23T08:33:01;118.03;;;54.83;;
18338;SDS011;9295;44.484;11.240;2023-02-23T08:35:31;103.57;;;55.00;;
18338;SDS011;9295;44.484;11.240;2023-02-23T08:37:59;102.47;;;54.87;;
18338;SDS011;9295;44.484;11.240;2023-02-23T08:40:28;125.83;;;57.50;;
18338;SDS011;9295;44.484;11.240;2023-02-23T08:42:56;112.07;;;60.40;;
18338;SDS011;9295;44.484;11.240;2023-02-23T08:45:25;126.63;;;61.90;;
18338;SDS011;9295;44.484;11.240;2023-02-23T08:47:55;114.83;;;60.00;;
18338;SDS011;9295;44.484;11.240;2023-02-23T08:50:25;126.57;;;63.30;;
18338;SDS011;9295;44.484;11.240;2023-02-23T08:52:53;124.97;;;64.93;;
18338;SDS011;9295;44.484;11.240;2023-02-23T08:55:22;127.83;;;66.57;;
18338;SDS011;9295;44.484;11.240;2023-02-23T08:57:50;131.17;;;68.77;;
18338;SDS011;9295;44.484;11.240;2023-02-23T09:00:19;165.83;;;85.33;;
18338;SDS011;9295;44.484;11.240;2023-02-23T09:02:48;144.17;;;78.40;;
18338;SDS011;9295;44.484;11.240;2023-02-23T09:05:17;162.57;;;82.97;;
18338;SDS011;9295;44.484;11.240;2023-02-23T09:07:47;160.20;;;83.70;;
18338;SDS011;9295;44.484;11.240;2023-02-23T09:10:18;172.57;;;86.03;;
18338;SDS011;9295;44.484;11.240;2023-02-23T09:12:50;162.07;;;84.87;;
18338;SDS011;9295;44.484;11.240;2023-02-23T09:15:18;156.83;;;85.60;;
18338;SDS011;9295;44.484;11.240;2023-02-23T09:17:47;172.43;;;89.70;;
18338;SDS011;9295;44.484;11.240;2023-02-23T09:20:16;170.33;;;89.97;;
18338;SDS011;9295;44.484;11.240;2023-02-23T09:22:44;168.07;;;88.23;;
18338;SDS011;9295;44.484;11.240;2023-02-23T09:25:17;162.53;;;88.57;;
18338;SDS011;9295;44.484;11.240;2023-02-23T09:27:48;163.33;;;87.07;;
18338;SDS011;9295;44.484;11.240;2023-02-23T09:30:17;170.53;;;93.53;;
18338;SDS011;9295;44.484;11.240;2023-02-23T09:32:48;159.60;;;86.57;;
18338;SDS011;9295;44.484;11.240;2023-02-23T09:35:18;172.47;;;86.87;;
18338;SDS011;9295;44.484;11.240;2023-02-23T09:37:50;171.03;;;88.80;;
18338;SDS011;9295;44.484;11.240;2023-02-23T09:40:23;167.27;;;87.17;;
18338;SDS011;9295;44.484;11.240;2023-02-23T09:42:57;179.90;;;87.70;;
18338;SDS011;9295;44.484;11.240;2023-02-23T09:45:31;158.90;;;82.67;;
18338;SDS011;9295;44.484;11.240;2023-02-23T09:48:10;162.10;;;85.27;;
18338;SDS011;9295;44.484;11.240;2023-02-23T09:50:43;166.83;;;84.37;;
18338;SDS011;9295;44.484;11.240;2023-02-23T09:53:29;148.20;;;81.90;;
18338;SDS011;9295;44.484;11.240;2023-02-23T09:56:06;144.70;;;79.80;;
18338;SDS011;9295;44.484;11.240;2023-02-23T09:58:38;156.33;;;80.60;;
18338;SDS011;9295;44.484;11.240;2023-02-23T10:01:17;154.67;;;79.30;;
18338;SDS011;9295;44.484;11.240;2023-02-23T10:03:59;145.53;;;76.10;;
18338;SDS011;9295;44.484;11.240;2023-02-23T10:06:33;147.43;;;80.40;;
18338;SDS011;9295;44.484;11.240;2023-02-23T10:09:04;144.70;;;79.27;;
18338;SDS011;9295;44.484;11.240;2023-02-23T10:11:44;157.30;;;77.90;;
18338;SDS011;9295;44.484;11.240;2023-02-23T10:14:24;160.03;;;83.43;;
18338;SDS011;9295;44.484;11.240;2023-02-23T10:17:08;161.73;;;83.63;;
18338;SDS011;9295;44.484;11.240;2023-02-23T10:19:46;150.33;;;81.57;;
18338;SDS011;9295;44.484;11.240;2023-02-23T10:22:22;160.27;;;85.67;;
18338;SDS011;9295;44.484;11.240;2023-02-23T10:24:54;192.83;;;93.20;;
18338;SDS011;9295;44.484;11.240;2023-02-23T10:27:28;181.27;;;90.30;;
18338;SDS011;9295;44.484;11.240;2023-02-23T10:30:00;187.27;;;91.87;;
18338;SDS011;9295;44.484;11.240;2023-02-23T10:32:33;194.23;;;94.83;;
18338;SDS011;9295;44.484;11.240;2023-02-23T10:35:08;170.83;;;90.73;;
18338;SDS011;9295;44.484;11.240;2023-02-23T10:37:39;174.27;;;88.50;;
18338;SDS011;9295;44.484;11.240;2023-02-23T10:40:12;165.33;;;86.00;;
18338;SDS011;9295;44.484;11.240;2023-02-23T10:42:44;175.73;;;91.90;;
18338;SDS011;9295;44.484;11.240;2023-02-23T10:45:13;181.57;;;89.07;;
18338;SDS011;9295;44.484;11.240;2023-02-23T10:47:44;161.37;;;87.47;;
18338;SDS011;9295;44.484;11.240;2023-02-23T10:50:13;166.37;;;88.77;;
18338;SDS011;9295;44.484;11.240;2023-02-23T10:52:43;168.80;;;90.80;;
18338;SDS011;9295;44.484;11.240;2023-02-23T10:55:19;164.63;;;90.47;;
18338;SDS011;9295;44.484;11.240;2023-02-23T10:58:01;165.77;;;88.30;;
18338;SDS011;9295;44.484;11.240;2023-02-23T11:00:34;170.37;;;90.30;;
18338;SDS011;9295;44.484;11.240;2023-02-23T11:03:14;168.47;;;91.20;;
18338;SDS011;9295;44.484;11.240;2023-02-23T11:05:46;181.73;;;92.07;;
18338;SDS011;9295;44.484;11.240;2023-02-23T11:08:23;162.87;;;88.50;;
18338;SDS011;9295;44.484;11.240;2023-02-23T11:10:58;161.47;;;83.37;;
18338;SDS011;9295;44.484;11.240;2023-02-23T11:13:33;154.87;;;80.80;;
18338;SDS011;9295;44.484;11.240;2023-02-23T11:16:05;165.10;;;84.40;;
18338;SDS011;9295;44.484;11.240;2023-02-23T11:18:37;165.60;;;85.43;;
18338;SDS011;9295;44.484;11.240;2023-02-23T11:21:08;163.30;;;84.97;;
18338;SDS011;9295;44.484;11.240;2023-02-23T11:23:40;155.00;;;82.53;;
18338;SDS011;9295;44.484;11.240;2023-02-23T11:26:20;139.80;;;78.73;;
18338;SDS011;9295;44.484;11.240;2023-02-23T11:28:58;129.50;;;68.83;;
18338;SDS011;9295;44.484;11.240;2023-02-23T11:31:31;119.57;;;65.07;;
18338;SDS011;9295;44.484;11.240;2023-02-23T11:34:02;123.60;;;62.23;;
18338;SDS011;9295;44.484;11.240;2023-02-23T11:36:33;115.07;;;59.50;;
18338;SDS011;9295;44.484;11.240;2023-02-23T11:39:05;115.13;;;61.33;;
18338;SDS011;9295;44.484;11.240;2023-02-23T11:41:44;111.77;;;60.47;;
18338;SDS011;9295;44.484;11.240;2023-02-23T11:44:19;120.40;;;63.20;;
18338;SDS011;9295;44.484;11.240;2023-02-23T11:46:49;127.13;;;63.27;;
18338;SDS011;9295;44.484;11.240;2023-02-23T11:49:19;124.40;;;65.77;;
18338;SDS011;9295;44.484;11.240;2023-02-23T11:51:53;101.37;;;53.60;;
18338;SDS011;9295;44.484;11.240;2023-02-23T11:54:22;113.27;;;60.20;;
18338;SDS011;9295;44.484;11.240;2023-02-23T11:56:54;117.30;;;58.20;;
18338;SDS011;9295;44.484;11.240;2023-02-23T11:59:27;90.57;;;50.30;;
18338;SDS011;9295;44.484;11.240;2023-02-23T12:02:00;87.60;;;47.30;;
18338;SDS011;9295;44.484;11.240;2023-02-23T12:04:34;96.53;;;53.03;;
18338;SDS011;9295;44.484;11.240;2023-02-23T12:09:57;92.07;;;50.87;;
18338;SDS011;9295;44.484;11.240;2023-02-23T12:12:34;91.20;;;51.10;;
18338;SDS011;9295;44.484;11.240;2023-02-23T12:15:14;102.00;;;51.23;;
18338;SDS011;9295;44.484;11.240;2023-02-23T12:17:52;95.80;;;51.57;;
18338;SDS011;9295;44.484;11.240;2023-02-23T12:20:26;88.53;;;47.70;;
18338;SDS011;9295;44.484;11.240;2023-02-23T12:22:58;77.93;;;43.63;;
18338;SDS011;9295;44.484;11.240;2023-02-23T12:25:33;84.80;;;47.50;;
18338;SDS011;9295;44.484;11.240;2023-02-23T12:28:08;105.23;;;56.80;;
18338;SDS011;9295;44.484;11.240;2023-02-23T12:30:47;98.73;;;52.37;;
18338;SDS011;9295;44.484;11.240;2023-02-23T12:33:20;105.20;;;56.33;;
18338;SDS011;9295;44.484;11.240;2023-02-23T12:35:56;109.27;;;59.20;;
18338;SDS011;9295;44.484;11.240;2023-02-23T12:38:31;112.57;;;57.37;;
18338;SDS011;9295;44.484;11.240;2023-02-23T12:41:04;94.87;;;52.07;;
18338;SDS011;9295;44.484;11.240;2023-02-23T12:43:39;97.60;;;51.77;;
18338;SDS011;9295;44.484;11.240;2023-02-23T12:46:17;94.30;;;50.60;;
18338;SDS011;9295;44.484;11.240;2023-02-23T12:48:51;89.90;;;48.43;;
18338;SDS011;9295;44.484;11.240;2023-02-23T12:51:29;97.00;;;48.90;;
18338;SDS011;9295;44.484;11.240;2023-02-23T12:54:01;88.30;;;48.40;;
18338;SDS011;9295;44.484;11.240;2023-02-23T12:56:33;97.03;;;51.07;;
18338;SDS011;9295;44.484;11.240;2023-02-23T12:59:29;79.23;;;44.07;;
18338;SDS011;9295;44.484;11.240;2023-02-23T13:02:27;78.03;;;42.07;;
18338;SDS011;9295;44.484;11.240;2023-02-23T13:07:51;78.77;;;41.83;;
18338;SDS011;9295;44.484;11.240;2023-02-23T13:10:41;79.70;;;43.90;;
18338;SDS011;9295;44.484;11.240;2023-02-23T13:13:19;87.63;;;47.17;;
18338;SDS011;9295;44.484;11.240;2023-02-23T13:15:57;81.63;;;44.13;;
18338;SDS011;9295;44.484;11.240;2023-02-23T13:18:35;86.43;;;45.00;;
18338;SDS011;9295;44.484;11.240;2023-02-23T13:21:10;91.57;;;44.70;;
18338;SDS011;9295;44.484;11.240;2023-02-23T13:23:48;88.00;;;46.20;;
18338;SDS011;9295;44.484;11.240;2023-02-23T13:26:27;73.73;;;43.27;;
18338;SDS011;9295;44.484;11.240;2023-02-23T13:29:04;83.70;;;44.97;;
18338;SDS011;9295;44.484;11.240;2023-02-23T13:31:38;81.10;;;45.47;;
18338;SDS011;9295;44.484;11.240;2023-02-23T13:34:10;80.93;;;44.57;;
18338;SDS011;9295;44.484;11.240;2023-02-23T13:36:43;77.13;;;43.03;;
18338;SDS011;9295;44.484;11.240;2023-02-23T13:39:23;75.93;;;44.77;;
18338;SDS011;9295;44.484;11.240;2023-02-23T13:42:05;82.97;;;45.60;;
18338;SDS011;9295;44.484;11.240;2023-02-23T13:44:52;80.60;;;44.57;;
18338;SDS011;9295;44.484;11.240;2023-02-23T13:47:30;76.27;;;43.30;;
18338;SDS011;9295;44.484;11.240;2023-02-23T13:50:13;71.33;;;39.80;;
18338;SDS011;9295;44.484;11.240;2023-02-23T13:52:48;72.10;;;40.83;;
18338;SDS011;9295;44.484;11.240;2023-02-23T13:55:35;81.73;;;42.47;;
18338;SDS011;9295;44.484;11.240;2023-02-23T13:58:16;68.23;;;39.50;;
18338;SDS011;9295;44.484;11.240;2023-02-23T14:00:52;77.07;;;41.53;;
18338;SDS011;9295;44.484;11.240;2023-02-23T14:03:31;67.50;;;38.37;;
18338;SDS011;9295;44.484;11.240;2023-02-23T14:06:06;75.03;;;41.27;;
18338;SDS011;9295;44.484;11.240;2023-02-23T14:08:44;77.57;;;40.73;;
18338;SDS011;9295;44.484;11.240;2023-02-23T14:23:32;65.90;;;38.50;;
18338;SDS011;9295;44.484;11.240;2023-02-23T14:26:17;63.53;;;39.07;;
18338;SDS011;9295;44.484;11.240;2023-02-23T14:31:57;69.50;;;40.37;;
18338;SDS011;9295;44.484;11.240;2023-02-23T14:34:42;74.37;;;43.47;;
18338;SDS011;9295;44.484;11.240;2023-02-23T14:37:15;66.90;;;41.40;;
18338;SDS011;9295;44.484;11.240;2023-02-23T14:39:49;73.50;;;41.60;;
18338;SDS011;9295;44.484;11.240;2023-02-23T14:42:20;80.30;;;44.10;;
18338;SDS011;9295;44.484;11.240;2023-02-23T14:44:51;88.40;;;44.43;;
18338;SDS011;9295;44.484;11.240;2023-02-23T14:47:21;80.10;;;43.40;;
18338;SDS011;9295;44.484;11.240;2023-02-23T14:49:52;82.07;;;43.50;;
18338;SDS011;9295;44.484;11.240;2023-02-23T14:52:23;84.23;;;43.70;;
18338;SDS011;9295;44.484;11.240;2023-02-23T14:55:05;84.27;;;44.87;;
18338;SDS011;9295;44.484;11.240;2023-02-23T14:57:42;81.23;;;42.63;;
18338;SDS011;9295;44.484;11.240;2023-02-23T15:00:13;82.07;;;43.57;;
18338;SDS011;9295;44.484;11.240;2023-02-23T15:02:52;75.47;;;42.70;;
18338;SDS011;9295;44.484;11.240;2023-02-23T15:05:24;85.83;;;42.70;;
18338;SDS011;9295;44.484;11.240;2023-02-23T15:07:56;79.80;;;42.97;;
18338;SDS011;9295;44.484;11.240;2023-02-23T15:10:30;74.17;;;42.00;;
18338;SDS011;9295;44.484;11.240;2023-02-23T15:13:00;81.63;;;43.27;;
18338;SDS011;9295;44.484;11.240;2023-02-23T15:15:39;78.53;;;44.57;;
18338;SDS011;9295;44.484;11.240;2023-02-23T15:18:13;88.40;;;43.57;;
18338;SDS011;9295;44.484;11.240;2023-02-23T15:20:47;85.03;;;42.50;;
18338;SDS011;9295;44.484;11.240;2023-02-23T15:23:17;83.87;;;43.03;;
18338;SDS011;9295;44.484;11.240;2023-02-23T15:25:48;90.97;;;42.63;;
18338;SDS011;9295;44.484;11.240;2023-02-23T15:28:19;87.47;;;44.80;;
18338;SDS011;9295;44.484;11.240;2023-02-23T15:30:51;78.63;;;42.60;;